createdAt,value
2018-01-14T00:00:44.294Z,0.10
2018-01-14T00:01:46.763Z,0.10
2018-01-14T00:02:49.282Z,0.10
2018-01-14T00:03:51.734Z,0.00
2018-01-14T00:04:54.203Z,0.00
2018-01-14T00:05:56.748Z,0.00
2018-01-14T00:06:59.973Z,0.00
2018-01-14T00:08:03.240Z,-0.10
2018-01-14T00:09:05.813Z,-0.10
2018-01-14T00:10:08.337Z,-0.10
2018-01-14T00:11:11.562Z,-0.10
2018-01-14T00:12:14.021Z,-0.10
2018-01-14T00:13:18.050Z,-0.20
2018-01-14T00:14:20.509Z,-0.20
2018-01-14T00:15:23.780Z,-0.20
2018-01-14T00:16:27.030Z,-0.30
2018-01-14T00:17:29.524Z,-0.20
2018-01-14T00:18:31.989Z,-0.30
2018-01-14T00:19:34.481Z,-0.30
2018-01-14T00:20:37.751Z,-0.30
2018-01-14T00:21:40.228Z,-0.30
2018-01-14T00:22:44.741Z,-0.40
2018-01-14T00:23:47.566Z,-0.40
2018-01-14T00:24:50.811Z,-0.40
2018-01-14T00:25:54.083Z,-0.40
2018-01-14T00:26:56.574Z,-0.40
2018-01-14T00:27:59.811Z,-0.40
2018-01-14T00:29:03.033Z,-0.40
2018-01-14T00:30:06.288Z,-0.50
2018-01-14T00:31:08.879Z,-0.50
2018-01-14T00:32:11.342Z,-0.50
2018-01-14T00:33:14.577Z,-0.50
2018-01-14T00:34:17.130Z,-0.50
2018-01-14T00:35:20.345Z,-0.50
2018-01-14T00:36:22.918Z,-0.50
2018-01-14T00:37:25.385Z,-0.50
2018-01-14T00:38:27.858Z,-0.60
2018-01-14T00:39:30.326Z,-0.50
2018-01-14T00:40:32.797Z,-0.60
2018-01-14T00:41:35.277Z,-0.60
2018-01-14T00:42:37.734Z,-0.60
2018-01-14T00:43:41.123Z,-0.70
2018-01-14T00:44:43.595Z,-0.60
2018-01-14T00:45:46.829Z,-0.60
2018-01-14T00:46:50.093Z,-0.70
2018-01-14T00:47:53.354Z,-0.70
2018-01-14T00:48:55.841Z,-0.70
2018-01-14T00:49:59.821Z,-0.70
2018-01-14T00:51:03.179Z,-0.70
2018-01-14T00:52:05.665Z,-0.70
2018-01-14T00:53:08.901Z,-0.70
2018-01-14T00:54:11.523Z,-0.70
2018-01-14T00:55:13.994Z,-0.70
2018-01-14T00:56:16.477Z,-0.70
2018-01-14T00:57:20.459Z,-0.80
2018-01-14T00:58:23.725Z,-0.80
2018-01-14T00:59:26.222Z,-0.80
2018-01-14T01:00:28.816Z,-0.80
2018-01-14T01:01:31.342Z,-0.80
2018-01-14T01:02:33.877Z,-0.80
2018-01-14T01:03:36.414Z,-0.80
2018-01-14T01:04:38.928Z,-0.80
2018-01-14T01:05:41.431Z,-0.90
2018-01-14T01:06:43.976Z,-0.90
2018-01-14T01:07:46.491Z,-0.90
2018-01-14T01:08:48.954Z,-0.90
2018-01-14T01:09:52.240Z,-0.90
2018-01-14T01:10:54.786Z,-0.90
2018-01-14T01:11:57.313Z,-0.90
2018-01-14T01:12:59.857Z,-0.90
2018-01-14T01:14:02.530Z,-1.00
2018-01-14T01:15:05.796Z,-0.90
2018-01-14T01:16:08.276Z,-1.00
2018-01-14T01:17:11.634Z,-0.90
2018-01-14T01:18:14.922Z,-1.00
2018-01-14T01:19:17.898Z,-1.00
2018-01-14T01:20:21.187Z,-1.00
2018-01-14T01:21:23.697Z,-1.00
2018-01-14T01:22:26.216Z,-1.00
2018-01-14T01:23:28.722Z,-1.00
2018-01-14T01:24:31.959Z,-1.10
2018-01-14T01:25:34.492Z,-1.10
2018-01-14T01:26:37.042Z,-1.00
2018-01-14T01:27:39.504Z,-1.00
2018-01-14T01:28:42.024Z,-1.00
2018-01-14T01:29:44.513Z,-1.00
2018-01-14T01:30:46.985Z,-1.10
2018-01-14T01:31:49.486Z,-1.10
2018-01-14T01:32:52.034Z,-1.10
2018-01-14T01:33:54.544Z,-1.10
2018-01-14T01:34:57.118Z,-1.10
2018-01-14T01:36:00.391Z,-1.10
2018-01-14T01:37:02.883Z,-1.10
2018-01-14T01:38:05.635Z,-1.10
2018-01-14T01:39:08.867Z,-1.10
2018-01-14T01:40:12.182Z,-1.10
2018-01-14T01:41:14.763Z,-1.10
2018-01-14T01:42:17.235Z,-1.10
2018-01-14T01:43:19.739Z,-1.10
2018-01-14T01:44:22.259Z,-1.10
2018-01-14T01:45:24.780Z,-1.10
2018-01-14T01:46:27.249Z,-1.10
2018-01-14T01:47:29.749Z,-1.10
2018-01-14T01:48:32.267Z,-1.10
2018-01-14T01:49:34.807Z,-1.20
2018-01-14T01:50:37.273Z,-1.20
2018-01-14T01:51:40.540Z,-1.20
2018-01-14T01:52:43.010Z,-1.20
2018-01-14T01:53:46.296Z,-1.20
2018-01-14T01:54:48.961Z,-1.20
2018-01-14T01:55:51.598Z,-1.20
2018-01-14T01:56:54.051Z,-1.20
2018-01-14T01:57:56.505Z,-1.20
2018-01-14T01:58:58.981Z,-1.20
2018-01-14T02:00:03.144Z,-1.30
2018-01-14T02:01:05.974Z,-1.30
2018-01-14T02:02:08.447Z,-1.30
2018-01-14T02:03:11.104Z,-1.20
2018-01-14T02:04:13.590Z,-1.20
2018-01-14T02:05:16.841Z,-1.30
2018-01-14T02:06:19.374Z,-1.30
2018-01-14T02:07:21.886Z,-1.30
2018-01-14T02:08:25.147Z,-1.30
2018-01-14T02:09:27.694Z,-1.30
2018-01-14T02:10:30.192Z,-1.30
2018-01-14T02:11:32.675Z,-1.30
2018-01-14T02:12:37.899Z,-1.30
2018-01-14T02:13:40.368Z,-1.30
2018-01-14T02:14:42.899Z,-1.30
2018-01-14T02:15:45.470Z,-1.30
2018-01-14T02:16:48.776Z,-1.30
2018-01-14T02:17:51.402Z,-1.30
2018-01-14T02:18:53.970Z,-1.30
2018-01-14T02:19:57.217Z,-1.30
2018-01-14T02:20:59.697Z,-1.30
2018-01-14T02:22:02.165Z,-1.30
2018-01-14T02:23:05.452Z,-1.30
2018-01-14T02:24:07.938Z,-1.30
2018-01-14T02:25:10.457Z,-1.30
2018-01-14T02:26:13.710Z,-1.30
2018-01-14T02:27:16.183Z,-1.30
2018-01-14T02:28:18.762Z,-1.30
2018-01-14T02:29:21.244Z,-1.30
2018-01-14T02:30:23.706Z,-1.30
2018-01-14T02:31:26.219Z,-1.30
2018-01-14T02:32:29.478Z,-1.30
2018-01-14T02:33:31.985Z,-1.30
2018-01-14T02:34:35.236Z,-1.30
2018-01-14T02:35:38.486Z,-1.30
2018-01-14T02:36:40.984Z,-1.30
2018-01-14T02:37:43.526Z,-1.30
2018-01-14T02:38:46.762Z,-1.40
2018-01-14T02:39:50.115Z,-1.40
2018-01-14T02:40:53.350Z,-1.40
2018-01-14T02:41:56.581Z,-1.40
2018-01-14T02:42:59.043Z,-1.40
2018-01-14T02:44:01.515Z,-1.40
2018-01-14T02:45:03.997Z,-1.40
2018-01-14T02:46:06.471Z,-1.50
2018-01-14T02:47:08.939Z,-1.50
2018-01-14T02:48:11.452Z,-1.50
2018-01-14T02:49:14.699Z,-1.50
2018-01-14T02:50:17.203Z,-1.50
2018-01-14T02:51:20.448Z,-1.50
2018-01-14T02:52:22.914Z,-1.50
2018-01-14T02:53:25.376Z,-1.50
2018-01-14T02:54:27.890Z,-1.50
2018-01-14T02:55:30.342Z,-1.50
2018-01-14T02:56:33.706Z,-1.50
2018-01-14T02:57:36.184Z,-1.50
2018-01-14T02:58:38.646Z,-1.50
2018-01-14T02:59:41.934Z,-1.60
2018-01-14T03:00:44.406Z,-1.50
2018-01-14T03:01:47.637Z,-1.50
2018-01-14T03:02:51.612Z,-1.50
2018-01-14T03:03:54.842Z,-1.50
2018-01-14T03:04:57.356Z,-1.60
2018-01-14T03:05:59.914Z,-1.60
2018-01-14T03:07:03.150Z,-1.60
2018-01-14T03:08:06.393Z,-1.60
2018-01-14T03:09:09.691Z,-1.60
2018-01-14T03:10:12.290Z,-1.60
2018-01-14T03:11:14.754Z,-1.60
2018-01-14T03:12:17.246Z,-1.60
2018-01-14T03:13:19.713Z,-1.60
2018-01-14T03:14:22.968Z,-1.60
2018-01-14T03:15:26.938Z,-1.60
2018-01-14T03:16:30.175Z,-1.60
2018-01-14T03:17:33.465Z,-1.60
2018-01-14T03:18:36.781Z,-1.60
2018-01-14T03:19:39.249Z,-1.60
2018-01-14T03:20:41.762Z,-1.60
2018-01-14T03:21:44.254Z,-1.60
2018-01-14T03:22:46.714Z,-1.60
2018-01-14T03:23:49.186Z,-1.60
2018-01-14T03:24:52.421Z,-1.60
2018-01-14T03:25:55.685Z,-1.60
2018-01-14T03:26:58.913Z,-1.60
2018-01-14T03:28:02.157Z,-1.60
2018-01-14T03:29:05.411Z,-1.60
2018-01-14T03:30:07.879Z,-1.60
2018-01-14T03:31:10.470Z,-1.70
2018-01-14T03:32:13.708Z,-1.70
2018-01-14T03:33:16.937Z,-1.60
2018-01-14T03:34:20.173Z,-1.60
2018-01-14T03:35:22.813Z,-1.70
2018-01-14T03:36:26.161Z,-1.70
2018-01-14T03:37:29.461Z,-1.70
2018-01-14T03:38:31.936Z,-1.70
2018-01-14T03:39:35.157Z,-1.70
2018-01-14T03:40:38.433Z,-1.70
2018-01-14T03:41:40.961Z,-1.70
2018-01-14T03:42:43.434Z,-1.70
2018-01-14T03:43:47.430Z,-1.70
2018-01-14T03:44:50.659Z,-1.70
2018-01-14T03:45:53.900Z,-1.70
2018-01-14T03:46:57.193Z,-1.70
2018-01-14T03:47:59.681Z,-1.70
2018-01-14T03:49:02.904Z,-1.70
2018-01-14T03:50:06.170Z,-1.70
2018-01-14T03:51:08.626Z,-1.70
2018-01-14T03:52:12.139Z,-1.80
2018-01-14T03:53:15.377Z,-1.80
2018-01-14T03:54:18.605Z,-1.80
2018-01-14T03:55:21.918Z,-1.80
2018-01-14T03:56:24.391Z,-1.80
2018-01-14T03:57:27.645Z,-1.80
2018-01-14T03:58:30.162Z,-1.80
2018-01-14T03:59:32.654Z,-1.80
2018-01-14T04:00:35.882Z,-1.80
2018-01-14T04:01:38.390Z,-1.80
2018-01-14T04:02:40.859Z,-1.80
2018-01-14T04:03:44.127Z,-1.80
2018-01-14T04:04:46.614Z,-1.80
2018-01-14T04:05:49.848Z,-1.80
2018-01-14T04:06:52.418Z,-1.90
2018-01-14T04:07:54.930Z,-1.80
2018-01-14T04:08:58.193Z,-1.80
2018-01-14T04:10:00.654Z,-1.90
2018-01-14T04:11:03.141Z,-1.90
2018-01-14T04:12:05.610Z,-1.90
2018-01-14T04:13:08.098Z,-1.90
2018-01-14T04:14:10.869Z,-1.90
2018-01-14T04:15:13.326Z,-1.90
2018-01-14T04:16:16.570Z,-1.90
2018-01-14T04:17:19.826Z,-1.90
2018-01-14T04:18:24.447Z,-1.90
2018-01-14T04:19:26.923Z,-1.90
2018-01-14T04:20:29.385Z,-1.90
2018-01-14T04:21:31.858Z,-1.90
2018-01-14T04:22:35.085Z,-1.90
2018-01-14T04:23:38.351Z,-1.90
2018-01-14T04:24:41.730Z,-1.90
2018-01-14T04:25:44.207Z,-1.90
2018-01-14T04:26:47.441Z,-1.90
2018-01-14T04:27:49.921Z,-1.90
2018-01-14T04:28:52.394Z,-1.90
2018-01-14T04:29:55.646Z,-1.90
2018-01-14T04:30:58.903Z,-1.90
2018-01-14T04:32:02.154Z,-1.90
2018-01-14T04:33:04.623Z,-1.90
2018-01-14T04:34:07.094Z,-1.90
2018-01-14T04:35:10.346Z,-1.90
2018-01-14T04:36:12.894Z,-2.00
2018-01-14T04:37:15.498Z,-1.90
2018-01-14T04:38:17.953Z,-1.90
2018-01-14T04:39:20.455Z,-1.90
2018-01-14T04:40:23.022Z,-2.00
2018-01-14T04:41:25.597Z,-2.00
2018-01-14T04:42:28.819Z,-2.00
2018-01-14T04:43:32.100Z,-2.00
2018-01-14T04:44:34.574Z,-2.00
2018-01-14T04:45:37.287Z,-2.00
2018-01-14T04:46:40.630Z,-2.00
2018-01-14T04:47:43.309Z,-2.00
2018-01-14T04:48:45.772Z,-2.00
2018-01-14T04:49:48.230Z,-2.00
2018-01-14T04:50:50.689Z,-2.00
2018-01-14T04:51:53.160Z,-2.00
2018-01-14T04:52:55.644Z,-2.00
2018-01-14T04:53:58.118Z,-2.00
2018-01-14T04:55:00.600Z,-2.10
2018-01-14T04:56:03.079Z,-2.00
2018-01-14T04:57:06.330Z,-2.10
2018-01-14T04:58:08.793Z,-2.10
2018-01-14T04:59:11.257Z,-2.10
2018-01-14T05:00:14.490Z,-2.10
2018-01-14T05:01:16.994Z,-2.10
2018-01-14T05:02:19.462Z,-2.10
2018-01-14T05:03:22.697Z,-2.10
2018-01-14T05:04:25.165Z,-2.10
2018-01-14T05:05:27.677Z,-2.10
2018-01-14T05:06:30.970Z,-2.10
2018-01-14T05:07:33.430Z,-2.20
2018-01-14T05:08:36.755Z,-2.20
2018-01-14T05:09:39.294Z,-2.20
2018-01-14T05:10:41.781Z,-2.20
2018-01-14T05:11:44.322Z,-2.10
2018-01-14T05:12:46.782Z,-2.10
2018-01-14T05:13:49.999Z,-2.10
2018-01-14T05:14:52.575Z,-2.10
2018-01-14T05:15:55.097Z,-2.10
2018-01-14T05:16:58.174Z,-2.10
2018-01-14T05:18:00.662Z,-2.10
2018-01-14T05:19:03.127Z,-2.10
2018-01-14T05:20:05.598Z,-2.10
2018-01-14T05:21:08.138Z,-2.20
2018-01-14T05:22:10.629Z,-2.20
2018-01-14T05:23:13.111Z,-2.10
2018-01-14T05:24:15.574Z,-2.20
2018-01-14T05:25:18.601Z,-2.20
2018-01-14T05:26:21.070Z,-2.20
2018-01-14T05:27:23.539Z,-2.20
2018-01-14T05:28:26.008Z,-2.10
2018-01-14T05:29:29.240Z,-2.10
2018-01-14T05:30:32.489Z,-2.10
2018-01-14T05:31:35.727Z,-2.10
2018-01-14T05:32:38.972Z,-2.10
2018-01-14T05:33:42.222Z,-2.10
2018-01-14T05:34:45.449Z,-2.10
2018-01-14T05:35:48.764Z,-2.20
2018-01-14T05:36:51.250Z,-2.10
2018-01-14T05:37:53.795Z,-2.20
2018-01-14T05:38:56.287Z,-2.10
2018-01-14T05:39:59.525Z,-2.20
2018-01-14T05:41:02.755Z,-2.20
2018-01-14T05:42:06.056Z,-2.20
2018-01-14T05:43:08.522Z,-2.20
2018-01-14T05:44:11.413Z,-2.20
2018-01-14T05:45:13.902Z,-2.20
2018-01-14T05:46:17.326Z,-2.20
2018-01-14T05:47:19.836Z,-2.20
2018-01-14T05:48:22.406Z,-2.20
2018-01-14T05:49:24.906Z,-2.20
2018-01-14T05:50:28.274Z,-2.20
2018-01-14T05:51:30.746Z,-2.20
2018-01-14T05:52:33.214Z,-2.20
2018-01-14T05:53:36.469Z,-2.20
2018-01-14T05:54:38.938Z,-2.20
2018-01-14T05:55:41.514Z,-2.20
2018-01-14T05:56:44.732Z,-2.20
2018-01-14T05:57:47.966Z,-2.20
2018-01-14T05:58:51.198Z,-2.30
2018-01-14T05:59:53.671Z,-2.30
2018-01-14T06:00:56.153Z,-2.30
2018-01-14T06:01:58.605Z,-2.30
2018-01-14T06:03:01.855Z,-2.20
2018-01-14T06:04:05.077Z,-2.30
2018-01-14T06:05:07.587Z,-2.30
2018-01-14T06:06:10.869Z,-2.20
2018-01-14T06:07:13.394Z,-2.20
2018-01-14T06:08:16.618Z,-2.20
2018-01-14T06:09:19.853Z,-2.20
2018-01-14T06:10:22.343Z,-2.20
2018-01-14T06:11:24.834Z,-2.20
2018-01-14T06:12:27.377Z,-2.20
2018-01-14T06:13:29.836Z,-2.20
2018-01-14T06:14:32.409Z,-2.20
2018-01-14T06:15:34.883Z,-2.20
2018-01-14T06:16:37.363Z,-2.20
2018-01-14T06:17:39.870Z,-2.20
2018-01-14T06:18:43.129Z,-2.20
2018-01-14T06:19:45.602Z,-2.20
2018-01-14T06:20:48.085Z,-2.20
2018-01-14T06:21:50.582Z,-2.30
2018-01-14T06:22:53.124Z,-2.30
2018-01-14T06:23:55.614Z,-2.30
2018-01-14T06:24:58.073Z,-2.30
2018-01-14T06:26:00.578Z,-2.30
2018-01-14T06:27:03.801Z,-2.30
2018-01-14T06:28:06.269Z,-2.30
2018-01-14T06:29:08.745Z,-2.30
2018-01-14T06:30:11.206Z,-2.30
2018-01-14T06:31:14.469Z,-2.30
2018-01-14T06:32:16.936Z,-2.30
2018-01-14T06:33:19.405Z,-2.30
2018-01-14T06:34:22.386Z,-2.30
2018-01-14T06:35:24.854Z,-2.30
2018-01-14T06:36:28.210Z,-2.30
2018-01-14T06:37:31.452Z,-2.30
2018-01-14T06:38:34.701Z,-2.30
2018-01-14T06:39:37.173Z,-2.30
2018-01-14T06:40:39.647Z,-2.30
2018-01-14T06:41:43.735Z,-2.30
2018-01-14T06:42:46.340Z,-2.40
2018-01-14T06:43:49.673Z,-2.30
2018-01-14T06:44:52.920Z,-2.30
2018-01-14T06:45:56.158Z,-2.40
2018-01-14T06:46:59.406Z,-2.30
2018-01-14T06:48:01.914Z,-2.40
2018-01-14T06:49:05.141Z,-2.30
2018-01-14T06:50:08.381Z,-2.30
2018-01-14T06:51:12.353Z,-2.40
2018-01-14T06:52:15.606Z,-2.40
2018-01-14T06:53:19.014Z,-2.40
2018-01-14T06:54:21.498Z,-2.40
2018-01-14T06:55:24.030Z,-2.40
2018-01-14T06:56:26.542Z,-2.30
2018-01-14T06:57:29.940Z,-2.40
2018-01-14T06:58:32.389Z,-2.40
2018-01-14T06:59:35.713Z,-2.40
2018-01-14T07:00:38.363Z,-2.40
2018-01-14T07:01:41.596Z,-2.40
2018-01-14T07:02:44.153Z,-2.40
2018-01-14T07:03:46.664Z,-2.40
2018-01-14T07:04:49.126Z,-2.40
2018-01-14T07:05:51.612Z,-2.40
2018-01-14T07:06:54.919Z,-2.40
2018-01-14T07:07:57.416Z,-2.40
2018-01-14T07:08:59.873Z,-2.40
2018-01-14T07:10:02.434Z,-2.40
2018-01-14T07:11:05.673Z,-2.40
2018-01-14T07:12:08.911Z,-2.40
2018-01-14T07:13:11.394Z,-2.40
2018-01-14T07:14:13.870Z,-2.40
2018-01-14T07:15:17.127Z,-2.40
2018-01-14T07:16:19.673Z,-2.40
2018-01-14T07:17:22.146Z,-2.40
2018-01-14T07:18:25.397Z,-2.40
2018-01-14T07:19:28.625Z,-2.40
2018-01-14T07:20:31.125Z,-2.40
2018-01-14T07:21:33.654Z,-2.40
2018-01-14T07:22:36.143Z,-2.40
2018-01-14T07:23:38.662Z,-2.40
2018-01-14T07:24:41.125Z,-2.40
2018-01-14T07:25:43.625Z,-2.40
2018-01-14T07:26:46.080Z,-2.40
2018-01-14T07:27:48.599Z,-2.40
2018-01-14T07:28:51.089Z,-2.40
2018-01-14T07:29:53.562Z,-2.40
2018-01-14T07:30:56.039Z,-2.40
2018-01-14T07:31:58.538Z,-2.40
2018-01-14T07:33:01.775Z,-2.30
2018-01-14T07:34:05.019Z,-2.40
2018-01-14T07:35:08.250Z,-2.30
2018-01-14T07:36:10.749Z,-2.30
2018-01-14T07:37:13.298Z,-2.30
2018-01-14T07:38:15.794Z,-2.30
2018-01-14T07:39:18.267Z,-2.30
2018-01-14T07:40:21.583Z,-2.30
2018-01-14T07:41:24.090Z,-2.30
2018-01-14T07:42:26.575Z,-2.30
2018-01-14T07:43:30.146Z,-2.30
2018-01-14T07:44:32.617Z,-2.30
2018-01-14T07:45:35.110Z,-2.30
2018-01-14T07:46:37.593Z,-2.30
2018-01-14T07:47:40.069Z,-2.30
2018-01-14T07:48:43.165Z,-2.30
2018-01-14T07:49:46.422Z,-2.30
2018-01-14T07:50:48.886Z,-2.30
2018-01-14T07:51:51.371Z,-2.30
2018-01-14T07:52:53.849Z,-2.30
2018-01-14T07:53:56.350Z,-2.30
2018-01-14T07:54:58.848Z,-2.20
2018-01-14T07:56:01.338Z,-2.20
2018-01-14T07:57:03.804Z,-2.20
2018-01-14T07:58:06.283Z,-2.20
2018-01-14T07:59:09.578Z,-2.20
2018-01-14T08:00:12.055Z,-2.20
2018-01-14T08:01:14.517Z,-2.10
2018-01-14T08:02:17.011Z,-2.10
2018-01-14T08:03:20.565Z,-2.10
2018-01-14T08:04:23.929Z,-2.10
2018-01-14T08:05:26.388Z,-2.10
2018-01-14T08:06:28.890Z,-2.10
2018-01-14T08:07:31.358Z,-2.10
2018-01-14T08:08:33.823Z,-2.10
2018-01-14T08:09:37.072Z,-2.10
2018-01-14T08:10:40.419Z,-2.10
2018-01-14T08:11:42.954Z,-2.00
2018-01-14T08:12:45.476Z,-2.10
2018-01-14T08:13:47.952Z,-2.10
2018-01-14T08:14:50.429Z,-2.00
2018-01-14T08:15:52.887Z,-2.00
2018-01-14T08:16:55.492Z,-2.00
2018-01-14T08:17:57.974Z,-2.00
2018-01-14T08:19:01.254Z,-2.00
2018-01-14T08:20:03.729Z,-2.00
2018-01-14T08:21:06.198Z,-2.00
2018-01-14T08:22:08.686Z,-1.90
2018-01-14T08:23:11.929Z,-1.90
2018-01-14T08:24:14.486Z,-1.90
2018-01-14T08:25:16.975Z,-1.90
2018-01-14T08:26:19.531Z,-1.90
2018-01-14T08:27:22.151Z,-1.90
2018-01-14T08:28:26.101Z,-1.90
2018-01-14T08:29:29.370Z,-1.90
2018-01-14T08:30:31.827Z,-1.90
2018-01-14T08:31:34.310Z,-1.90
2018-01-14T08:32:36.801Z,-1.90
2018-01-14T08:33:40.798Z,-1.90
2018-01-14T08:34:43.273Z,-1.90
2018-01-14T08:35:45.758Z,-1.90
2018-01-14T08:36:48.223Z,-1.90
2018-01-14T08:37:50.713Z,-1.80
2018-01-14T08:38:53.178Z,-1.80
2018-01-14T08:39:56.419Z,-1.80
2018-01-14T08:40:58.901Z,-1.80
2018-01-14T08:42:01.366Z,-1.80
2018-01-14T08:43:04.622Z,-1.80
2018-01-14T08:44:07.866Z,-1.70
2018-01-14T08:45:10.330Z,-1.70
2018-01-14T08:46:12.818Z,-1.60
2018-01-14T08:47:15.371Z,-1.50
2018-01-14T08:48:18.605Z,-1.20
2018-01-14T08:49:21.843Z,-1.10
2018-01-14T08:50:25.076Z,-0.90
2018-01-14T08:51:28.356Z,-0.70
2018-01-14T08:52:30.861Z,-0.70
2018-01-14T08:53:33.384Z,-0.60
2018-01-14T08:54:36.850Z,-0.40
2018-01-14T08:55:39.325Z,-0.50
2018-01-14T08:56:41.805Z,-0.40
2018-01-14T08:57:44.319Z,-0.30
2018-01-14T08:58:46.796Z,-0.30
2018-01-14T08:59:49.245Z,-0.20
2018-01-14T09:00:52.486Z,-0.20
2018-01-14T09:01:55.766Z,-0.40
2018-01-14T09:02:58.234Z,-0.40
2018-01-14T09:04:00.714Z,-0.50
2018-01-14T09:05:03.187Z,-0.60
2018-01-14T09:06:07.157Z,-0.80
2018-01-14T09:07:10.427Z,-0.90
2018-01-14T09:08:12.899Z,-0.90
2018-01-14T09:09:15.581Z,-0.80
2018-01-14T09:10:18.825Z,-0.90
2018-01-14T09:11:21.345Z,-0.90
2018-01-14T09:12:24.856Z,-0.90
2018-01-14T09:13:28.019Z,-1.00
2018-01-14T09:14:35.189Z,-1.00
2018-01-14T09:15:37.922Z,-1.00
2018-01-14T09:16:40.666Z,-1.00
2018-01-14T09:17:43.126Z,-1.00
2018-01-14T09:18:49.505Z,-1.00
2018-01-14T09:19:51.972Z,-1.00
2018-01-14T09:20:55.353Z,-1.00
2018-01-14T09:21:58.050Z,-1.00
2018-01-14T09:23:01.298Z,-0.90
2018-01-14T09:24:04.577Z,-0.90
2018-01-14T09:25:07.083Z,-0.90
2018-01-14T09:26:09.554Z,-0.90
2018-01-14T09:27:12.047Z,-0.90
2018-01-14T09:28:14.526Z,-0.80
2018-01-14T09:29:17.039Z,-0.80
2018-01-14T09:31:53.831Z,-0.60
2018-01-14T09:32:56.373Z,-0.60
2018-01-14T09:33:59.728Z,-0.70
2018-01-14T09:35:02.254Z,-0.70
2018-01-14T09:36:04.777Z,-0.60
2018-01-14T09:37:07.303Z,-0.60
2018-01-14T09:38:10.529Z,-0.60
2018-01-14T09:39:13.802Z,-0.50
2018-01-14T09:40:16.269Z,-0.50
2018-01-14T09:41:19.520Z,-0.50
2018-01-14T09:42:22.030Z,-0.50
2018-01-14T09:43:24.506Z,-0.50
2018-01-14T09:44:27.080Z,-0.50
2018-01-14T09:45:29.532Z,-0.50
2018-01-14T09:46:32.773Z,-0.60
2018-01-14T09:47:35.231Z,-0.60
2018-01-14T09:48:37.740Z,-0.50
2018-01-14T09:49:41.006Z,-0.50
2018-01-14T09:50:43.480Z,-0.50
2018-01-14T09:51:47.446Z,-0.50
2018-01-14T09:52:50.006Z,-0.50
2018-01-14T09:53:53.273Z,-0.30
2018-01-14T09:54:56.968Z,-0.30
2018-01-14T09:55:59.433Z,-0.30
2018-01-14T09:57:01.905Z,-0.30
2018-01-14T09:58:06.027Z,-0.40
2018-01-14T09:59:08.537Z,-0.40
2018-01-14T10:00:11.002Z,-0.40
2018-01-14T10:01:13.461Z,-0.40
2018-01-14T10:02:16.737Z,-0.40
2018-01-14T10:03:19.356Z,-0.40
2018-01-14T10:04:22.602Z,-0.40
2018-01-14T10:05:25.171Z,-0.40
2018-01-14T10:06:27.687Z,-0.40
2018-01-14T10:07:30.146Z,-0.40
2018-01-14T10:08:32.738Z,-0.40
2018-01-14T10:09:35.335Z,-0.40
2018-01-14T10:10:37.799Z,-0.30
2018-01-14T10:11:40.257Z,-0.30
2018-01-14T10:12:42.738Z,-0.30
2018-01-14T10:13:45.206Z,-0.30
2018-01-14T10:14:48.550Z,-0.20
2018-01-14T10:15:51.808Z,-0.20
2018-01-14T10:16:55.046Z,-0.20
2018-01-14T10:17:58.305Z,-0.20
2018-01-14T10:19:00.769Z,-0.20
2018-01-14T10:20:03.262Z,-0.20
2018-01-14T10:21:05.730Z,-0.20
2018-01-14T10:22:08.958Z,-0.20
2018-01-14T10:23:11.421Z,-0.20
2018-01-14T10:24:14.683Z,-0.20
2018-01-14T10:25:17.165Z,-0.20
2018-01-14T10:26:19.627Z,-0.20
2018-01-14T10:27:22.133Z,-0.20
2018-01-14T10:28:25.372Z,-0.10
2018-01-14T10:29:27.925Z,-0.10
2018-01-14T10:30:30.443Z,-0.10
2018-01-14T10:31:33.711Z,-0.20
2018-01-14T10:32:36.246Z,-0.20
2018-01-14T10:33:38.746Z,-0.20
2018-01-14T10:34:41.216Z,-0.20
2018-01-14T10:35:44.070Z,-0.10
2018-01-14T10:36:46.585Z,-0.10
2018-01-14T10:37:49.058Z,-0.10
2018-01-14T10:38:51.524Z,-0.10
2018-01-14T10:39:54.019Z,-0.10
2018-01-14T10:40:56.477Z,-0.10
2018-01-14T10:41:58.958Z,-0.10
2018-01-14T10:43:02.024Z,0.00
2018-01-14T10:44:04.517Z,0.00
2018-01-14T10:45:07.758Z,0.10
2018-01-14T10:46:10.247Z,0.10
2018-01-14T10:47:13.286Z,0.10
2018-01-14T10:48:17.280Z,0.10
2018-01-14T10:49:19.769Z,0.10
2018-01-14T10:50:22.222Z,0.20
2018-01-14T10:51:25.457Z,0.30
2018-01-14T10:52:29.029Z,0.30
2018-01-14T10:53:31.546Z,0.20
2018-01-14T10:54:35.405Z,0.30
2018-01-14T10:55:37.865Z,0.30
2018-01-14T10:56:40.329Z,0.30
2018-01-14T10:57:42.793Z,0.30
2018-01-14T10:58:45.253Z,0.30
2018-01-14T10:59:47.923Z,0.30
2018-01-14T11:00:56.958Z,0.30
2018-01-14T11:01:59.427Z,0.30
2018-01-14T11:03:02.702Z,0.30
2018-01-14T11:04:05.262Z,0.30
2018-01-14T11:05:07.772Z,0.30
2018-01-14T11:06:10.237Z,0.30
2018-01-14T11:07:13.458Z,0.30
2018-01-14T11:08:17.468Z,0.30
2018-01-14T11:09:19.920Z,0.30
2018-01-14T11:10:22.577Z,0.30
2018-01-14T11:11:25.133Z,0.30
2018-01-14T11:12:27.587Z,0.20
2018-01-14T11:13:30.083Z,0.30
2018-01-14T11:14:32.935Z,0.20
2018-01-14T11:15:35.417Z,0.20
2018-01-14T11:16:38.648Z,0.30
2018-01-14T11:17:41.206Z,0.20
2018-01-14T11:18:44.450Z,0.30
2018-01-14T11:19:46.908Z,0.30
2018-01-14T11:20:49.401Z,0.30
2018-01-14T11:21:52.177Z,0.40
2018-01-14T11:22:55.361Z,0.40
2018-01-14T11:24:01.778Z,0.30
2018-01-14T11:25:04.820Z,0.30
2018-01-14T11:26:08.821Z,0.40
2018-01-14T11:27:11.782Z,0.40
2018-01-14T11:28:17.019Z,0.40
2018-01-14T11:29:31.269Z,0.20
2018-01-14T11:30:33.733Z,0.20
2018-01-14T11:31:36.966Z,0.20
2018-01-14T11:32:39.474Z,0.20
2018-01-14T11:33:41.951Z,0.20
2018-01-14T11:34:44.410Z,0.20
2018-01-14T11:35:47.634Z,0.20
2018-01-14T11:36:50.086Z,0.20
2018-01-14T11:37:53.331Z,0.30
2018-01-14T11:38:56.652Z,0.30
2018-01-14T11:39:59.126Z,0.30
2018-01-14T11:41:01.591Z,0.30
2018-01-14T11:42:04.067Z,0.30
2018-01-14T11:43:07.290Z,0.30
2018-01-14T11:44:10.548Z,0.40
2018-01-14T11:45:13.798Z,0.40
2018-01-14T11:46:17.138Z,0.30
2018-01-14T11:47:20.379Z,0.40
2018-01-14T11:48:23.620Z,0.30
2018-01-14T11:49:26.851Z,0.30
2018-01-14T11:50:30.109Z,0.20
2018-01-14T11:51:33.325Z,0.20
2018-01-14T11:52:35.787Z,0.20
2018-01-14T11:53:38.277Z,0.20
2018-01-14T11:54:41.524Z,0.20
2018-01-14T11:55:44.892Z,0.20
2018-01-14T11:56:48.219Z,0.20
2018-01-14T11:57:51.429Z,0.20
2018-01-14T11:58:53.890Z,0.20
2018-01-14T11:59:57.145Z,0.10
2018-01-14T12:00:59.679Z,0.10
2018-01-14T12:02:02.199Z,0.10
2018-01-14T12:03:04.717Z,0.10
2018-01-14T12:04:07.240Z,0.10
2018-01-14T12:05:09.743Z,0.10
2018-01-14T12:06:12.307Z,0.10
2018-01-14T12:07:14.875Z,0.10
2018-01-14T12:08:17.349Z,0.20
2018-01-14T12:09:20.526Z,0.20
2018-01-14T12:10:22.991Z,0.20
2018-01-14T12:11:25.461Z,0.20
2018-01-14T12:12:27.918Z,0.20
2018-01-14T12:13:30.383Z,0.20
2018-01-14T12:14:33.628Z,0.30
2018-01-14T12:15:36.159Z,0.20
2018-01-14T12:16:38.627Z,0.30
2018-01-14T12:17:41.814Z,0.20
2018-01-14T12:18:45.544Z,0.20
2018-01-14T12:19:48.812Z,0.30
2018-01-14T12:20:52.038Z,0.30
2018-01-14T12:21:55.330Z,0.20
2018-01-14T12:22:57.838Z,0.20
2018-01-14T12:24:00.306Z,0.20
2018-01-14T12:25:02.823Z,0.20
2018-01-14T12:26:05.590Z,0.20
2018-01-14T12:27:08.827Z,0.20
2018-01-14T12:28:12.082Z,0.20
2018-01-14T12:29:15.330Z,0.20
2018-01-14T12:30:18.555Z,0.20
2018-01-14T12:31:21.787Z,0.10
2018-01-14T12:34:36.915Z,0.10
2018-01-14T12:35:39.379Z,0.10
2018-01-14T12:36:42.609Z,0.10
2018-01-14T12:37:45.115Z,0.10
2018-01-14T12:38:47.694Z,0.10
2018-01-14T12:39:50.202Z,0.10
2018-01-14T12:40:52.703Z,0.10
2018-01-14T12:41:55.248Z,0.10
2018-01-14T12:42:57.790Z,0.10
2018-01-14T12:44:00.251Z,0.10
2018-01-14T12:45:02.707Z,0.10
2018-01-14T12:46:05.218Z,0.20
2018-01-14T12:47:07.740Z,0.20
2018-01-14T12:48:10.316Z,0.20
2018-01-14T12:49:13.560Z,0.20
2018-01-14T12:50:16.026Z,0.10
2018-01-14T12:51:18.511Z,0.20
2018-01-14T12:52:21.744Z,0.30
2018-01-14T12:53:25.023Z,0.30
2018-01-14T12:54:27.571Z,0.30
2018-01-14T12:55:30.044Z,0.30
2018-01-14T12:56:33.281Z,0.20
2018-01-14T12:57:36.529Z,0.10
2018-01-14T12:58:39.778Z,0.10
2018-01-14T12:59:42.273Z,0.10
2018-01-14T13:00:44.702Z,0.10
2018-01-14T13:01:48.003Z,0.10
2018-01-14T13:02:50.624Z,0.10
2018-01-14T13:03:53.682Z,0.10
2018-01-14T13:04:56.138Z,0.10
2018-01-14T13:05:59.357Z,0.10
2018-01-14T13:07:01.884Z,0.10
2018-01-14T13:08:04.335Z,0.10
2018-01-14T13:09:07.642Z,0.20
2018-01-14T13:10:10.581Z,0.20
2018-01-14T13:11:13.045Z,0.20
2018-01-14T13:12:16.281Z,0.10
2018-01-14T13:13:19.543Z,0.10
2018-01-14T13:14:22.021Z,0.10
2018-01-14T13:15:24.500Z,0.10
2018-01-14T13:16:27.119Z,0.10
2018-01-14T13:17:30.333Z,0.10
2018-01-14T13:18:33.587Z,0.00
2018-01-14T13:19:36.847Z,0.00
2018-01-14T13:20:40.067Z,0.00
2018-01-14T13:21:43.341Z,0.10
2018-01-14T13:22:45.842Z,0.10
2018-01-14T13:23:49.078Z,0.00
2018-01-14T13:24:52.306Z,0.00
2018-01-14T13:25:54.810Z,0.00
2018-01-14T13:26:57.395Z,0.00
2018-01-14T13:27:59.915Z,0.00
2018-01-14T13:29:02.436Z,0.00
2018-01-14T13:30:05.673Z,0.00
2018-01-14T13:31:08.906Z,0.00
2018-01-14T13:32:12.174Z,0.00
2018-01-14T13:33:14.724Z,0.00
2018-01-14T13:34:17.229Z,0.00
2018-01-14T13:35:20.204Z,0.00
2018-01-14T13:36:22.692Z,0.00
2018-01-14T13:37:25.291Z,0.00
2018-01-14T13:38:28.530Z,0.00
2018-01-14T13:39:31.794Z,0.00